TimeEDT,TemperatureF,Dew PointF,Humidity,Sea Level PressureIn,VisibilityMPH,Wind Direction,Wind SpeedMPH,Gust SpeedMPH,PrecipitationIn,Events,Conditions,WindDirDegrees,DateUTC
12:15 AM,67.1,58.6,74,29.93,10.0,South,4.6,-,N/A,,Mostly Cloudy,190,2013-09-21 04:15:00
12:35 AM,66.7,59.0,76,29.93,10.0,SSW,4.6,-,N/A,,Mostly Cloudy,200,2013-09-21 04:35:00
12:55 AM,67.5,59.0,74,29.92,10.0,South,5.8,-,N/A,,Overcast,190,2013-09-21 04:55:00
1:15 AM,67.8,59.2,74,29.92,10.0,South,5.8,-,N/A,,Overcast,190,2013-09-21 05:15:00
1:35 AM,67.6,59.4,75,29.92,10.0,South,4.6,-,N/A,,Overcast,190,2013-09-21 05:35:00
1:55 AM,66.9,59.4,77,29.91,10.0,South,4.6,-,N/A,,Mostly Cloudy,190,2013-09-21 05:55:00
2:15 AM,66.2,59.5,79,29.91,10.0,SSW,5.8,-,N/A,,Mostly Cloudy,210,2013-09-21 06:15:00
2:35 AM,65.7,59.9,82,29.90,10.0,SW,4.6,-,N/A,,Mostly Cloudy,230,2013-09-21 06:35:00
2:55 AM,66.2,60.1,81,29.89,10.0,South,8.1,-,N/A,,Mostly Cloudy,190,2013-09-21 06:55:00
3:15 AM,66.6,60.1,80,29.88,10.0,SSW,5.8,-,N/A,,Mostly Cloudy,200,2013-09-21 07:15:00
3:35 AM,66.2,60.1,81,29.88,10.0,SSW,6.9,-,N/A,,Mostly Cloudy,210,2013-09-21 07:35:00
3:55 AM,66.4,60.1,80,29.87,10.0,SW,8.1,-,N/A,,Overcast,220,2013-09-21 07:55:00
4:15 AM,66.4,60.3,81,29.87,10.0,SSW,5.8,-,N/A,,Overcast,200,2013-09-21 08:15:00
4:35 AM,66.2,60.4,82,29.87,10.0,South,9.2,-,N/A,,Overcast,190,2013-09-21 08:35:00
4:55 AM,66.2,60.4,82,29.87,10.0,South,8.1,-,N/A,,Overcast,190,2013-09-21 08:55:00
5:15 AM,66.2,60.4,82,29.86,10.0,South,9.2,-,N/A,,Overcast,190,2013-09-21 09:15:00
5:35 AM,66.2,60.4,82,29.85,10.0,SSW,9.2,-,N/A,,Overcast,200,2013-09-21 09:35:00
5:53 AM,66.2,60.8,83,29.84,10.0,SSW,10.4,-,N/A,,Overcast,210,2013-09-21 09:53:00
6:05 AM,66.2,60.8,83,29.84,4.0,SSW,9.2,-,N/A,Rain,Rain,210,2013-09-21 10:05:00
6:53 AM,64.4,62.6,94,29.83,5.0,SSW,9.2,-,N/A,,Drizzle,200,2013-09-21 10:53:00
7:53 AM,64.4,60.8,88,29.82,6.0,SW,6.9,-,N/A,,Overcast,220,2013-09-21 11:53:00
8:53 AM,64.4,60.8,88,29.81,6.0,SSW,6.9,-,N/A,Rain,Light Rain,210,2013-09-21 12:53:00
9:53 AM,64.4,60.8,88,29.82,10.0,South,5.8,-,N/A,,Overcast,180,2013-09-21 13:53:00
10:53 AM,64.4,60.8,88,29.80,10.0,South,11.5,-,N/A,,Overcast,180,2013-09-21 14:53:00
11:53 AM,64.4,60.8,88,29.77,10.0,SSW,11.5,-,N/A,,Overcast,210,2013-09-21 15:53:00
12:53 PM,64.4,60.8,88,29.74,7.0,South,11.5,-,N/A,,Overcast,180,2013-09-21 16:53:00
1:53 PM,64.4,62.6,94,29.70,3.0,South,13.8,-,N/A,Rain,Rain,180,2013-09-21 17:53:00
2:38 PM,64.4,62.6,94,29.69,2.0,South,11.5,-,N/A,Rain,Rain,190,2013-09-21 18:38:00
2:53 PM,64.4,62.6,94,29.67,2.0,South,13.8,-,N/A,Rain,Rain,180,2013-09-21 18:53:00
3:53 PM,62.6,59.0,88,29.70,2.0,West,11.5,18.4,N/A,Rain,Rain,270,2013-09-21 19:53:00
4:19 PM,60.8,59.0,94,29.72,3.0,SW,11.5,-,N/A,Rain,Rain,220,2013-09-21 20:19:00
4:53 PM,60.8,59.0,94,29.73,3.0,SSW,6.9,-,N/A,Rain,Rain,210,2013-09-21 20:53:00
5:30 PM,60.8,59.0,94,29.72,5.0,Calm,Calm,-,N/A,,Light Drizzle,0,2013-09-21 21:30:00
5:53 PM,60.8,59.0,94,29.71,4.0,Calm,Calm,-,N/A,,Light Drizzle,0,2013-09-21 21:53:00
6:39 PM,60.8,59.0,94,29.71,4.0,Calm,Calm,-,N/A,,Drizzle,0,2013-09-21 22:39:00
6:53 PM,60.8,59.0,94,29.74,5.0,Calm,Calm,-,N/A,Rain,Light Rain,0,2013-09-21 22:53:00
7:30 PM,60.8,59.0,94,29.72,5.0,Calm,Calm,-,N/A,Rain,Light Rain,0,2013-09-21 23:30:00
7:53 PM,60.8,59.0,94,29.73,4.0,Calm,Calm,-,N/A,Rain,Light Rain,0,2013-09-21 23:53:00
8:28 PM,59.0,59.0,100,29.73,3.0,Calm,Calm,-,N/A,Rain,Light Rain,0,2013-09-22 00:28:00
8:53 PM,59.0,59.0,100,29.74,7.0,WSW,3.5,-,N/A,,Overcast,240,2013-09-22 00:53:00
9:15 PM,59.4,59.0,99,29.75,10.0,WSW,5.8,-,N/A,,Overcast,250,2013-09-22 01:15:00
9:35 PM,59.5,59.0,98,29.75,10.0,WSW,5.8,-,N/A,,Overcast,250,2013-09-22 01:35:00
9:55 PM,59.9,59.0,97,29.75,10.0,WSW,5.8,-,N/A,,Overcast,240,2013-09-22 01:55:00
10:15 PM,59.0,58.3,97,29.75,10.0,WSW,5.8,-,N/A,,Mostly Cloudy,240,2013-09-22 02:15:00
10:35 PM,58.6,57.9,97,29.75,10.0,WSW,5.8,-,N/A,,Mostly Cloudy,240,2013-09-22 02:35:00
10:55 PM,57.9,57.2,97,29.75,7.0,SW,5.8,-,N/A,,Mostly Cloudy,220,2013-09-22 02:55:00
11:15 PM,57.6,56.8,97,29.75,10.0,SW,5.8,-,N/A,,Scattered Clouds,230,2013-09-22 03:15:00
11:35 PM,56.8,55.8,96,29.76,10.0,WSW,3.5,-,N/A,,Clear,240,2013-09-22 03:35:00
11:55 PM,57.4,56.5,97,29.76,10.0,South,3.5,-,N/A,,Mostly Cloudy,190,2013-09-22 03:55:00